createdAt,value
2017-04-17T00:00:41.328Z,92.52
2017-04-17T00:01:36.400Z,92.54
2017-04-17T00:02:31.385Z,92.53
2017-04-17T00:03:32.436Z,92.58
2017-04-17T00:04:32.438Z,92.58
2017-04-17T00:05:32.480Z,92.61
2017-04-17T00:06:27.511Z,92.61
2017-04-17T00:07:21.469Z,92.60
2017-04-17T00:08:22.573Z,92.70
2017-04-17T00:09:22.588Z,92.73
2017-04-17T00:10:22.636Z,92.75
2017-04-17T00:11:17.660Z,92.79
2017-04-17T00:12:11.696Z,92.84
2017-04-17T00:13:11.827Z,92.89
2017-04-17T00:14:06.847Z,92.91
2017-04-17T00:15:01.767Z,92.93
2017-04-17T00:16:02.774Z,92.98
2017-04-17T00:17:02.829Z,93.02
2017-04-17T00:18:02.845Z,93.04
2017-04-17T00:19:02.873Z,93.07
2017-04-17T00:20:03.898Z,93.11
2017-04-17T00:21:05.053Z,93.12
2017-04-17T00:21:58.955Z,93.11
2017-04-17T00:22:58.946Z,93.16
2017-04-17T00:23:53.985Z,93.16
2017-04-17T00:24:49.032Z,93.17
2017-04-17T00:25:49.064Z,93.17
2017-04-17T00:26:44.219Z,93.21
2017-04-17T00:27:39.098Z,93.22
2017-04-17T00:28:39.128Z,93.22
2017-04-17T00:29:34.201Z,93.23
2017-04-17T00:30:23.190Z,93.24
2017-04-17T00:31:17.406Z,93.23
2017-04-17T00:32:11.258Z,93.20
2017-04-17T00:33:05.306Z,93.20
2017-04-17T00:33:59.333Z,93.20
2017-04-17T00:35:05.361Z,93.20
2017-04-17T00:36:05.380Z,93.17
2017-04-17T00:36:59.430Z,93.15
2017-04-17T00:37:59.449Z,93.14
2017-04-17T00:38:54.447Z,93.10
2017-04-17T00:39:49.511Z,93.05
2017-04-17T00:40:50.510Z,93.07
2017-04-17T00:41:51.523Z,93.04
2017-04-17T00:42:46.537Z,93.04
2017-04-17T00:43:40.630Z,93.00
2017-04-17T00:44:40.648Z,93.00
2017-04-17T00:45:35.670Z,92.98
2017-04-17T00:46:35.786Z,92.98
2017-04-17T00:47:29.716Z,92.96
2017-04-17T00:48:30.013Z,92.94
2017-04-17T00:49:24.783Z,92.92
2017-04-17T00:50:19.775Z,92.92
2017-04-17T00:51:19.843Z,92.88
2017-04-17T00:52:14.852Z,92.86
2017-04-17T00:53:09.862Z,92.88
2017-04-17T00:54:09.902Z,92.85
2017-04-17T00:55:04.960Z,92.85
2017-04-17T00:56:00.192Z,92.83
2017-04-17T00:57:00.957Z,92.80
2017-04-17T00:58:01.373Z,92.80
2017-04-17T00:59:01.073Z,92.77
2017-04-17T00:59:56.078Z,92.79
2017-04-17T01:00:50.125Z,92.78
2017-04-17T01:01:50.158Z,92.78
2017-04-17T01:02:45.136Z,92.77
2017-04-17T01:03:51.194Z,92.79
2017-04-17T01:04:46.243Z,92.76
2017-04-17T01:05:46.280Z,92.81
2017-04-17T01:06:46.292Z,92.83
2017-04-17T01:07:46.257Z,92.84
2017-04-17T01:08:41.337Z,92.88
2017-04-17T01:09:36.483Z,92.88
2017-04-17T01:10:37.361Z,92.92
2017-04-17T01:11:43.402Z,92.91
2017-04-17T01:12:37.450Z,92.93
2017-04-17T01:13:37.462Z,92.96
2017-04-17T01:14:37.490Z,92.95
2017-04-17T01:15:32.539Z,92.97
2017-04-17T01:16:26.606Z,92.99
2017-04-17T01:17:26.588Z,93.03
2017-04-17T01:18:21.601Z,93.04
2017-04-17T01:19:16.705Z,93.08
2017-04-17T01:20:17.689Z,93.09
2017-04-17T01:21:17.690Z,93.14
2017-04-17T01:22:17.725Z,93.14
2017-04-17T01:23:17.812Z,93.15
2017-04-17T01:24:18.788Z,93.15
2017-04-17T01:25:19.967Z,93.17
2017-04-17T01:26:13.873Z,93.20
2017-04-17T01:27:14.905Z,93.19
2017-04-17T01:28:15.933Z,93.19
2017-04-17T01:29:15.894Z,93.20
2017-04-17T01:30:15.968Z,93.20
2017-04-17T01:31:11.016Z,93.23
2017-04-17T01:32:05.191Z,93.23
2017-04-17T01:33:05.389Z,93.22
2017-04-17T01:34:00.083Z,93.24
2017-04-17T01:34:54.104Z,93.24
2017-04-17T01:35:48.102Z,93.24
2017-04-17T01:36:37.318Z,93.26
2017-04-17T01:37:37.191Z,93.29
2017-04-17T01:38:32.200Z,93.29
2017-04-17T01:39:32.285Z,93.29
2017-04-17T01:40:26.352Z,93.31
2017-04-17T01:41:26.325Z,93.32
2017-04-17T01:42:21.374Z,93.32
2017-04-17T01:43:16.378Z,93.33
2017-04-17T01:44:16.422Z,93.33
2017-04-17T01:45:11.434Z,93.37
2017-04-17T01:46:05.505Z,93.38
2017-04-17T01:47:00.503Z,93.37
2017-04-17T01:47:54.511Z,93.41
2017-04-17T01:48:54.776Z,93.43
2017-04-17T01:49:54.600Z,93.44
2017-04-17T01:50:49.587Z,93.48
2017-04-17T01:51:43.696Z,93.46
2017-04-17T01:52:37.688Z,93.48
2017-04-17T01:53:26.879Z,93.51
2017-04-17T01:54:20.777Z,93.53
2017-04-17T01:55:09.803Z,93.53
2017-04-17T01:56:03.871Z,93.54
2017-04-17T01:57:03.876Z,93.55
2017-04-17T01:57:58.054Z,93.55
2017-04-17T01:58:57.898Z,93.61
2017-04-17T01:59:52.935Z,93.58
2017-04-17T02:00:53.977Z,93.58
2017-04-17T02:01:53.969Z,93.57
2017-04-17T02:02:55.021Z,93.55
2017-04-17T02:03:55.015Z,93.55
2017-04-17T02:04:43.240Z,93.56
2017-04-17T02:05:43.098Z,93.55
2017-04-17T02:06:43.088Z,93.55
2017-04-17T02:07:32.190Z,93.55
2017-04-17T02:08:32.185Z,93.55
2017-04-17T02:09:26.194Z,93.55
2017-04-17T02:10:14.222Z,93.55
2017-04-17T02:11:15.308Z,93.55
2017-04-17T02:12:09.303Z,93.54
2017-04-17T02:13:03.356Z,93.55
2017-04-17T02:13:51.643Z,93.50
2017-04-17T02:14:40.419Z,93.52
2017-04-17T02:15:35.475Z,93.49
2017-04-17T02:16:35.477Z,93.50
2017-04-17T02:17:29.529Z,93.50
2017-04-17T02:18:17.534Z,93.50
2017-04-17T02:19:06.578Z,93.50
2017-04-17T02:20:00.659Z,93.50
2017-04-17T02:20:55.670Z,93.50
2017-04-17T02:21:44.710Z,93.50
2017-04-17T02:22:38.714Z,93.48
2017-04-17T02:23:27.797Z,93.46
2017-04-17T02:24:16.808Z,93.48
2017-04-17T02:25:10.792Z,93.46
2017-04-17T02:26:10.853Z,93.46
2017-04-17T02:26:58.835Z,93.44
2017-04-17T02:27:59.912Z,93.46
2017-04-17T02:28:53.970Z,93.41
2017-04-17T02:29:54.072Z,93.40
2017-04-17T02:30:48.984Z,93.43
2017-04-17T02:31:44.020Z,93.43
2017-04-17T02:32:32.114Z,93.41
2017-04-17T02:33:32.078Z,93.43
2017-04-17T02:34:38.091Z,93.44
2017-04-17T02:35:33.182Z,93.43
2017-04-17T02:36:33.178Z,93.46
2017-04-17T02:37:28.190Z,93.43
2017-04-17T02:38:23.204Z,93.45
2017-04-17T02:39:24.245Z,93.44
2017-04-17T02:40:24.276Z,93.45
2017-04-17T02:41:24.308Z,93.49
2017-04-17T02:42:24.700Z,93.49
2017-04-17T02:43:25.393Z,93.50
2017-04-17T02:44:25.397Z,93.52
2017-04-17T02:45:20.395Z,93.51
2017-04-17T02:46:08.433Z,93.52
2017-04-17T02:46:57.498Z,93.52
2017-04-17T02:47:46.021Z,93.54
2017-04-17T02:48:39.782Z,93.55
2017-04-17T02:49:27.616Z,93.56
2017-04-17T02:50:22.609Z,93.55
2017-04-17T02:51:17.672Z,93.56
2017-04-17T02:52:12.703Z,93.60
2017-04-17T02:53:06.954Z,93.60
2017-04-17T02:54:01.764Z,93.62
2017-04-17T02:54:55.808Z,93.63
2017-04-17T02:55:55.795Z,93.63
2017-04-17T02:56:49.846Z,93.67
2017-04-17T02:57:49.877Z,93.67
2017-04-17T02:58:43.938Z,93.68
2017-04-17T02:59:37.931Z,93.70
2017-04-17T03:00:26.974Z,93.69
2017-04-17T03:01:21.990Z,93.71
2017-04-17T03:02:22.123Z,93.69
2017-04-17T03:03:17.170Z,93.73
2017-04-17T03:04:12.124Z,93.74
2017-04-17T03:05:12.150Z,93.76
2017-04-17T03:06:07.124Z,93.76
2017-04-17T03:07:07.194Z,93.77
2017-04-17T03:07:56.207Z,93.83
2017-04-17T03:08:56.244Z,93.82
2017-04-17T03:09:51.289Z,93.84
2017-04-17T03:10:46.296Z,93.84
2017-04-17T03:11:34.368Z,93.88
2017-04-17T03:12:29.370Z,93.87
2017-04-17T03:13:29.393Z,93.91
2017-04-17T03:14:29.553Z,93.91
2017-04-17T03:15:23.434Z,93.90
2017-04-17T03:16:23.423Z,93.94
2017-04-17T03:17:18.501Z,93.93
2017-04-17T03:18:18.554Z,93.97
2017-04-17T03:19:12.574Z,93.96
2017-04-17T03:20:13.806Z,93.95
2017-04-17T03:21:19.612Z,93.99
2017-04-17T03:22:13.668Z,93.98
2017-04-17T03:23:13.677Z,93.98
2017-04-17T03:24:13.699Z,94.01
2017-04-17T03:25:13.705Z,94.01
2017-04-17T03:26:19.766Z,94.06
2017-04-17T03:27:13.766Z,94.06
2017-04-17T03:28:03.011Z,94.05
2017-04-17T03:28:56.862Z,94.09
2017-04-17T03:29:56.900Z,94.09
2017-04-17T03:30:50.911Z,94.13
2017-04-17T03:31:50.976Z,94.13
2017-04-17T03:32:46.336Z,94.13
2017-04-17T03:33:33.980Z,94.13
2017-04-17T03:34:22.062Z,94.17
2017-04-17T03:35:16.067Z,94.19
2017-04-17T03:36:16.098Z,94.18
2017-04-17T03:37:11.383Z,94.17
2017-04-17T03:38:00.184Z,94.22
2017-04-17T03:38:54.168Z,94.21
2017-04-17T03:39:54.212Z,94.21
2017-04-17T03:40:54.256Z,94.20
2017-04-17T03:41:48.261Z,94.22
2017-04-17T03:42:48.465Z,94.24
2017-04-17T03:43:48.468Z,94.25
2017-04-17T03:44:42.362Z,94.25
2017-04-17T03:45:30.379Z,94.26
2017-04-17T03:46:18.409Z,94.29
2017-04-17T03:47:06.477Z,94.28
2017-04-17T03:48:01.528Z,94.32
2017-04-17T03:48:50.561Z,94.33
2017-04-17T03:49:38.588Z,94.33
2017-04-17T03:50:32.752Z,94.34
2017-04-17T03:51:20.665Z,94.34
2017-04-17T03:52:20.682Z,94.38
2017-04-17T03:53:10.287Z,94.39
2017-04-17T03:54:09.748Z,94.40
2017-04-17T03:55:04.010Z,94.40
2017-04-17T03:55:57.794Z,94.42
2017-04-17T03:56:52.820Z,94.44
2017-04-17T03:57:52.865Z,94.44
2017-04-17T03:58:46.892Z,94.44
2017-04-17T03:59:46.900Z,94.46
2017-04-17T04:00:41.116Z,94.48
2017-04-17T04:01:40.953Z,94.48
2017-04-17T04:02:34.989Z,94.48
2017-04-17T04:03:35.015Z,94.50
2017-04-17T04:04:23.116Z,94.52
2017-04-17T04:05:18.082Z,94.51
2017-04-17T04:06:07.127Z,94.51
2017-04-17T04:06:56.158Z,94.51
2017-04-17T04:07:51.207Z,94.50
2017-04-17T04:08:46.200Z,94.50
2017-04-17T04:09:41.255Z,94.50
2017-04-17T04:10:34.307Z,94.51
2017-04-17T04:11:22.291Z,94.51
2017-04-17T04:12:16.358Z,94.51
2017-04-17T04:13:04.422Z,94.55
2017-04-17T04:13:53.456Z,94.51
2017-04-17T04:14:53.795Z,94.51
2017-04-17T04:15:54.489Z,94.50
2017-04-17T04:16:55.497Z,94.49
2017-04-17T04:17:49.570Z,94.51
2017-04-17T04:18:49.602Z,94.49
2017-04-17T04:19:44.572Z,94.51
2017-04-17T04:20:44.879Z,94.48
2017-04-17T04:21:39.702Z,94.47
2017-04-17T04:22:33.905Z,94.49
2017-04-17T04:23:27.730Z,94.46
2017-04-17T04:24:27.775Z,94.46
2017-04-17T04:25:22.796Z,94.45
2017-04-17T04:26:12.486Z,94.45
2017-04-17T04:27:06.773Z,94.45
2017-04-17T04:28:00.906Z,94.45
2017-04-17T04:28:49.894Z,94.45
2017-04-17T04:29:38.929Z,94.45
2017-04-17T04:30:27.014Z,94.44
2017-04-17T04:31:16.357Z,94.47
2017-04-17T04:32:11.061Z,94.49
2017-04-17T04:33:05.102Z,94.49
2017-04-17T04:33:53.142Z,94.49
2017-04-17T04:34:47.167Z,94.50
2017-04-17T04:35:36.179Z,94.48
2017-04-17T04:36:25.620Z,94.48
2017-04-17T04:37:13.288Z,94.50
2017-04-17T04:38:08.273Z,94.48
2017-04-17T04:39:03.818Z,94.50
2017-04-17T04:39:57.400Z,94.48
2017-04-17T04:40:51.420Z,94.51
2017-04-17T04:41:41.079Z,94.48
2017-04-17T04:42:29.583Z,94.48
2017-04-17T04:43:23.513Z,94.47
2017-04-17T04:44:12.551Z,94.47
2017-04-17T04:45:06.547Z,94.49
2017-04-17T04:46:01.591Z,94.49
2017-04-17T04:47:02.398Z,94.49
2017-04-17T04:48:02.677Z,94.49
2017-04-17T04:48:51.689Z,94.47
2017-04-17T04:49:45.756Z,94.46
2017-04-17T04:50:33.768Z,94.46
2017-04-17T04:51:33.911Z,94.45
2017-04-17T04:52:23.104Z,94.46
2017-04-17T04:53:11.881Z,94.46
2017-04-17T04:54:06.883Z,94.46
2017-04-17T04:55:00.937Z,94.43
2017-04-17T04:55:54.967Z,94.42
2017-04-17T04:56:44.027Z,94.42
2017-04-17T04:57:38.588Z,94.44
2017-04-17T04:58:38.070Z,94.45
2017-04-17T04:59:26.277Z,94.46
2017-04-17T05:00:21.160Z,94.44
2017-04-17T05:01:10.228Z,94.40
2017-04-17T05:02:05.566Z,94.41
2017-04-17T05:02:59.515Z,94.41
2017-04-17T05:03:53.373Z,94.41
2017-04-17T05:04:47.290Z,94.39
2017-04-17T05:05:41.389Z,94.40
2017-04-17T05:06:35.376Z,94.39
2017-04-17T05:07:29.381Z,94.36
2017-04-17T05:08:24.810Z,94.32
2017-04-17T05:09:12.489Z,94.35
2017-04-17T05:10:01.492Z,94.32
2017-04-17T05:10:56.550Z,94.32
2017-04-17T05:11:50.763Z,94.28
2017-04-17T05:12:44.643Z,94.28
2017-04-17T05:13:39.061Z,94.24
2017-04-17T05:14:27.706Z,94.24
2017-04-17T05:15:22.702Z,94.26
2017-04-17T05:16:16.785Z,94.21
2017-04-17T05:17:11.808Z,94.22
2017-04-17T05:18:05.815Z,94.24
2017-04-17T05:19:00.189Z,94.18
2017-04-17T05:19:54.899Z,94.20
2017-04-17T05:20:54.912Z,94.19
2017-04-17T05:21:43.003Z,94.16
2017-04-17T05:22:31.011Z,94.16
2017-04-17T05:23:20.048Z,94.11
2017-04-17T05:24:08.410Z,94.13
2017-04-17T05:25:03.095Z,94.13
2017-04-17T05:26:03.163Z,94.10
2017-04-17T05:26:58.171Z,94.07
2017-04-17T05:27:58.182Z,94.07
2017-04-17T05:28:53.246Z,94.07
2017-04-17T05:29:42.765Z,94.01
2017-04-17T05:30:36.312Z,93.97
2017-04-17T05:31:31.317Z,93.99
2017-04-17T05:32:20.396Z,93.89
2017-04-17T05:33:09.407Z,93.81
2017-04-17T05:33:58.416Z,93.83
2017-04-17T05:34:52.819Z,93.77
2017-04-17T05:35:41.526Z,93.77
2017-04-17T05:36:41.713Z,93.75
2017-04-17T05:37:36.593Z,93.72
2017-04-17T05:38:30.646Z,93.69
2017-04-17T05:39:24.672Z,93.65
2017-04-17T05:40:20.008Z,93.65
2017-04-17T05:41:13.822Z,93.64
2017-04-17T05:42:08.016Z,93.57
2017-04-17T05:43:01.794Z,93.55
2017-04-17T05:44:01.845Z,93.55
2017-04-17T05:44:50.867Z,93.53
2017-04-17T05:45:40.363Z,93.48
2017-04-17T05:46:33.912Z,93.44
2017-04-17T05:47:27.979Z,93.35
2017-04-17T05:48:22.096Z,93.27
2017-04-17T05:49:11.115Z,93.06
2017-04-17T05:50:11.013Z,92.90
2017-04-17T05:51:00.385Z,92.76
2017-04-17T05:51:49.130Z,92.60
2017-04-17T05:52:44.138Z,92.51
2017-04-17T05:53:44.216Z,92.45
2017-04-17T05:54:38.203Z,92.40
2017-04-17T05:55:38.240Z,92.39
2017-04-17T05:56:32.631Z,92.38
2017-04-17T05:57:32.283Z,92.40
2017-04-17T05:58:21.360Z,92.44
2017-04-17T05:59:09.387Z,92.46
2017-04-17T05:59:58.432Z,92.43
2017-04-17T06:00:47.534Z,92.43
2017-04-17T06:01:48.249Z,92.39
2017-04-17T06:02:41.887Z,92.31
2017-04-17T06:03:30.594Z,92.26
2017-04-17T06:04:19.628Z,92.26
2017-04-17T06:05:25.634Z,92.25
2017-04-17T06:06:20.685Z,92.01
2017-04-17T06:07:10.015Z,91.86
2017-04-17T06:08:09.755Z,91.78
2017-04-17T06:08:58.771Z,91.78
2017-04-17T06:09:47.817Z,91.75
2017-04-17T06:10:36.890Z,91.71
2017-04-17T06:11:31.889Z,91.52
2017-04-17T06:12:26.194Z,91.41
2017-04-17T06:13:19.935Z,91.29
2017-04-17T06:14:13.974Z,91.14
2017-04-17T06:15:08.093Z,91.13
2017-04-17T06:16:08.027Z,91.17
2017-04-17T06:17:02.165Z,91.13
2017-04-17T06:17:50.152Z,91.13
2017-04-17T06:18:38.187Z,91.14
2017-04-17T06:19:27.210Z,91.11
2017-04-17T06:20:21.217Z,91.09
2017-04-17T06:21:09.304Z,91.04
2017-04-17T06:21:58.413Z,91.06
2017-04-17T06:22:53.380Z,91.07
2017-04-17T06:23:53.385Z,91.13
2017-04-17T06:24:54.396Z,91.17
2017-04-17T06:25:48.429Z,91.18
2017-04-17T06:26:42.467Z,91.13
2017-04-17T06:27:37.924Z,91.08
2017-04-17T06:28:32.607Z,91.06
2017-04-17T06:29:26.577Z,91.12
2017-04-17T06:30:15.614Z,91.12
2017-04-17T06:31:09.707Z,91.11
2017-04-17T06:32:09.675Z,91.04
2017-04-17T06:33:03.724Z,91.05
2017-04-17T06:33:58.798Z,91.04
2017-04-17T06:34:47.794Z,91.05
2017-04-17T06:35:35.863Z,91.14
2017-04-17T06:36:24.870Z,91.13
2017-04-17T06:37:13.900Z,91.14
2017-04-17T06:38:07.950Z,91.10
2017-04-17T06:38:57.002Z,91.08
2017-04-17T06:39:46.088Z,91.11
2017-04-17T06:40:34.104Z,91.09
2017-04-17T06:41:22.108Z,91.09
2017-04-17T06:42:16.372Z,91.06
2017-04-17T06:43:17.201Z,90.92
2017-04-17T06:44:12.213Z,90.91
2017-04-17T06:45:13.263Z,90.67
2017-04-17T06:46:07.292Z,90.64
2017-04-17T06:47:01.307Z,90.59
2017-04-17T06:47:55.383Z,90.53
2017-04-17T06:48:44.404Z,90.47
2017-04-17T06:49:38.419Z,90.52
2017-04-17T06:50:32.502Z,90.59
2017-04-17T06:51:26.472Z,90.52
2017-04-17T06:52:14.496Z,90.32
2017-04-17T06:53:02.615Z,90.08
2017-04-17T06:53:56.607Z,89.76
2017-04-17T06:54:50.701Z,89.36
2017-04-17T06:55:44.718Z,88.12
2017-04-17T06:56:33.765Z,86.71
2017-04-17T06:57:33.787Z,85.13
2017-04-17T06:58:27.800Z,83.51
2017-04-17T06:59:22.842Z,83.24
2017-04-17T07:00:23.878Z,83.56
2017-04-17T07:01:23.884Z,83.46
2017-04-17T07:02:17.983Z,83.40
2017-04-17T07:03:11.965Z,83.53
2017-04-17T07:04:06.998Z,83.40
2017-04-17T07:05:02.124Z,83.21
2017-04-17T07:05:51.112Z,83.26
2017-04-17T07:06:51.162Z,83.80
2017-04-17T07:07:40.506Z,84.21
2017-04-17T07:08:29.187Z,84.34
2017-04-17T07:09:23.545Z,84.49
2017-04-17T07:10:12.286Z,84.52
2017-04-17T07:11:01.352Z,84.64
2017-04-17T07:11:56.404Z,84.37
2017-04-17T07:12:50.394Z,84.34
2017-04-17T07:13:44.476Z,84.40
2017-04-17T07:14:39.491Z,84.51
2017-04-17T07:15:34.483Z,84.83
2017-04-17T07:16:28.575Z,85.01
2017-04-17T07:17:23.585Z,85.41
2017-04-17T07:18:12.653Z,85.71
2017-04-17T07:19:06.665Z,85.93
2017-04-17T07:19:55.687Z,85.97
2017-04-17T07:20:50.765Z,85.80
2017-04-17T07:21:45.788Z,85.41
2017-04-17T07:22:40.872Z,85.12
2017-04-17T07:23:40.872Z,85.05
2017-04-17T07:24:34.868Z,85.11
2017-04-17T07:25:22.951Z,84.98
2017-04-17T07:26:12.005Z,84.78
2017-04-17T07:27:01.066Z,84.72
2017-04-17T07:27:55.093Z,84.57
2017-04-17T07:28:55.108Z,84.53
2017-04-17T07:29:49.155Z,84.88
2017-04-17T07:30:50.177Z,84.95
2017-04-17T07:31:50.208Z,84.52
2017-04-17T07:32:45.247Z,84.46
2017-04-17T07:33:39.304Z,84.83
2017-04-17T07:34:34.296Z,84.29
2017-04-17T07:35:34.346Z,82.69
2017-04-17T07:36:29.369Z,82.51
2017-04-17T07:37:29.386Z,81.83
2017-04-17T07:38:24.461Z,80.13
2017-04-17T07:39:13.573Z,79.11
2017-04-17T07:40:02.578Z,78.73
2017-04-17T07:40:57.590Z,75.76
2017-04-17T07:41:58.607Z,75.02
2017-04-17T07:42:58.661Z,74.12
2017-04-17T07:43:53.699Z,73.86
2017-04-17T07:44:42.778Z,74.57
2017-04-17T07:45:42.812Z,76.38
2017-04-17T07:46:42.827Z,77.54
2017-04-17T07:47:36.909Z,78.21
2017-04-17T07:48:31.900Z,79.10
2017-04-17T07:49:26.972Z,80.62
2017-04-17T07:50:20.989Z,80.33
2017-04-17T07:51:21.014Z,80.59
2017-04-17T07:52:15.020Z,80.91
2017-04-17T07:53:16.087Z,80.94
2017-04-17T07:54:16.119Z,81.39
2017-04-17T07:55:05.209Z,81.27
2017-04-17T07:56:11.255Z,81.44
2017-04-17T07:57:06.536Z,81.44
2017-04-17T07:57:54.276Z,81.65
2017-04-17T07:58:54.320Z,81.34
2017-04-17T07:59:49.383Z,81.11
2017-04-17T08:00:49.392Z,80.25
2017-04-17T08:01:43.469Z,80.38
2017-04-17T08:02:37.918Z,80.84
2017-04-17T08:03:31.501Z,80.46
2017-04-17T08:04:19.493Z,80.05
2017-04-17T08:05:19.602Z,79.64
2017-04-17T08:06:08.657Z,79.22
2017-04-17T08:06:56.680Z,79.06
2017-04-17T08:07:57.697Z,78.07
2017-04-17T08:08:46.747Z,78.10
2017-04-17T08:09:40.799Z,78.42
2017-04-17T08:10:30.083Z,78.11
2017-04-17T08:11:29.899Z,77.87
2017-04-17T08:12:25.070Z,77.71
2017-04-17T08:13:17.968Z,77.89
2017-04-17T08:14:07.233Z,78.79
2017-04-17T08:15:01.373Z,78.14
2017-04-17T08:15:55.098Z,78.66
2017-04-17T08:16:44.092Z,78.79
2017-04-17T08:17:38.174Z,78.52
2017-04-17T08:18:39.162Z,76.46
2017-04-17T08:19:33.250Z,72.19
2017-04-17T08:20:27.254Z,72.92
2017-04-17T08:21:27.348Z,69.80
2017-04-17T08:22:21.398Z,68.63
2017-04-17T08:23:22.422Z,67.62
2017-04-17T08:24:22.447Z,67.34
2017-04-17T08:25:17.508Z,66.49
2017-04-17T08:26:11.544Z,66.76
2017-04-17T08:27:05.595Z,63.64
2017-04-17T08:27:59.602Z,64.91
2017-04-17T08:28:53.709Z,64.85
2017-04-17T08:29:42.880Z,62.75
2017-04-17T08:30:36.810Z,62.81
2017-04-17T08:31:31.807Z,65.51
2017-04-17T08:32:26.863Z,66.30
2017-04-17T08:33:20.900Z,67.37
2017-04-17T08:34:15.069Z,67.83
2017-04-17T08:35:16.018Z,68.15
2017-04-17T08:36:05.022Z,69.20
2017-04-17T08:37:00.133Z,70.44
2017-04-17T08:37:49.187Z,71.11
2017-04-17T08:38:43.403Z,71.09
2017-04-17T08:39:38.242Z,72.43
2017-04-17T08:40:38.305Z,72.90
2017-04-17T08:41:33.347Z,73.26
2017-04-17T08:42:21.369Z,73.43
2017-04-17T08:43:09.398Z,73.85
2017-04-17T08:44:03.467Z,74.92
2017-04-17T08:44:57.609Z,73.33
2017-04-17T08:45:45.521Z,69.91
2017-04-17T08:46:39.813Z,66.37
2017-04-17T08:47:34.681Z,64.92
2017-04-17T08:48:22.691Z,64.11
2017-04-17T08:49:16.768Z,61.11
2017-04-17T08:50:11.798Z,59.49
2017-04-17T08:51:05.864Z,60.21
2017-04-17T08:52:05.881Z,61.15
2017-04-17T08:53:00.913Z,59.71
2017-04-17T08:53:55.954Z,60.81
2017-04-17T08:54:44.982Z,59.00
2017-04-17T08:55:39.123Z,56.78
2017-04-17T08:56:40.122Z,56.15
2017-04-17T08:57:35.175Z,56.85
2017-04-17T08:58:29.192Z,59.25
2017-04-17T08:59:23.229Z,61.78
2017-04-17T09:00:23.305Z,60.89
2017-04-17T09:01:17.379Z,59.77
2017-04-17T09:02:11.632Z,58.51
2017-04-17T09:02:59.431Z,60.07
2017-04-17T09:03:53.492Z,60.49
2017-04-17T09:04:53.526Z,60.52
2017-04-17T09:05:42.577Z,61.79
2017-04-17T09:06:36.602Z,64.26
2017-04-17T09:07:30.694Z,63.11
2017-04-17T09:08:31.718Z,56.41
2017-04-17T09:09:26.775Z,55.93
2017-04-17T09:10:28.014Z,57.10
2017-04-17T09:11:21.879Z,57.74
2017-04-17T09:12:10.924Z,58.52
2017-04-17T09:13:05.966Z,60.64
2017-04-17T09:14:00.980Z,61.80
2017-04-17T09:14:55.044Z,64.11
2017-04-17T09:15:44.108Z,64.44
2017-04-17T09:16:38.170Z,62.72
2017-04-17T09:17:38.396Z,61.39
2017-04-17T09:18:32.247Z,58.72
2017-04-17T09:19:33.476Z,55.66
2017-04-17T09:20:28.353Z,57.35
2017-04-17T09:21:28.373Z,57.73
2017-04-17T09:22:23.419Z,54.41
2017-04-17T09:23:23.482Z,55.26
2017-04-17T09:24:18.529Z,54.91
2017-04-17T09:25:13.910Z,56.13
2017-04-17T09:26:02.617Z,51.53
2017-04-17T09:26:56.674Z,52.03
2017-04-17T09:27:51.699Z,52.74
2017-04-17T09:28:46.774Z,56.24
2017-04-17T09:29:40.816Z,56.90
2017-04-17T09:30:40.886Z,52.94
2017-04-17T09:31:34.874Z,52.55
2017-04-17T09:32:28.990Z,54.97
2017-04-17T09:33:18.002Z,56.13
2017-04-17T09:34:07.297Z,55.42
2017-04-17T09:34:56.114Z,53.42
2017-04-17T09:35:45.195Z,54.78
2017-04-17T09:36:33.412Z,52.72
2017-04-17T09:37:28.279Z,52.31
2017-04-17T09:38:22.329Z,50.57
2017-04-17T09:39:11.398Z,50.09
2017-04-17T09:40:05.414Z,51.11
2017-04-17T09:40:59.484Z,53.65
2017-04-17T09:41:54.504Z,52.68
2017-04-17T09:42:42.954Z,54.16
2017-04-17T09:43:37.669Z,56.54
2017-04-17T09:44:37.738Z,56.72
2017-04-17T09:45:31.758Z,58.28
2017-04-17T09:46:31.824Z,59.93
2017-04-17T09:47:20.896Z,61.10
2017-04-17T09:48:14.935Z,62.02
2017-04-17T09:49:09.953Z,62.56
2017-04-17T09:49:58.021Z,63.01
2017-04-17T09:50:52.104Z,63.64
2017-04-17T09:51:40.118Z,64.24
2017-04-17T09:52:34.139Z,65.25
2017-04-17T09:53:22.206Z,66.00
2017-04-17T09:54:16.283Z,66.61
2017-04-17T09:55:10.297Z,66.62
2017-04-17T09:56:04.363Z,66.27
2017-04-17T09:56:58.507Z,65.42
2017-04-17T09:57:52.426Z,65.50
2017-04-17T09:58:41.497Z,65.15
2017-04-17T09:59:30.489Z,64.96
2017-04-17T10:00:24.570Z,65.08
2017-04-17T10:01:18.614Z,65.14
2017-04-17T10:02:07.688Z,66.25
2017-04-17T10:03:01.719Z,67.59
2017-04-17T10:03:56.768Z,67.02
2017-04-17T10:04:45.797Z,66.85
2017-04-17T10:05:39.900Z,64.98
2017-04-17T10:06:28.910Z,64.67
2017-04-17T10:07:22.989Z,65.03
2017-04-17T10:08:10.999Z,63.53
2017-04-17T10:09:00.025Z,62.42
2017-04-17T10:09:54.079Z,63.60
2017-04-17T10:10:54.132Z,64.57
2017-04-17T10:11:48.373Z,64.12
2017-04-17T10:12:49.194Z,61.91
2017-04-17T10:13:43.279Z,58.92
2017-04-17T10:14:32.369Z,58.97
2017-04-17T10:15:27.372Z,55.50
2017-04-17T10:16:21.545Z,53.16
2017-04-17T10:17:16.427Z,54.16
2017-04-17T10:18:05.493Z,51.71
2017-04-17T10:19:00.564Z,51.28
2017-04-17T10:20:00.598Z,53.95
2017-04-17T10:20:55.607Z,52.92
2017-04-17T10:21:50.710Z,52.01
2017-04-17T10:22:38.706Z,53.07
2017-04-17T10:23:33.771Z,50.04
2017-04-17T10:24:27.804Z,49.92
2017-04-17T10:25:15.877Z,52.19
2017-04-17T10:26:11.297Z,50.79
2017-04-17T10:27:04.973Z,49.50
2017-04-17T10:27:59.002Z,48.73
2017-04-17T10:28:54.014Z,48.75
2017-04-17T10:29:48.093Z,46.56
2017-04-17T10:30:36.192Z,46.29
2017-04-17T10:31:25.179Z,49.23
2017-04-17T10:32:19.316Z,47.96
2017-04-17T10:33:07.264Z,44.91
2017-04-17T10:34:02.362Z,44.54
2017-04-17T10:34:50.418Z,45.89
2017-04-17T10:35:39.525Z,48.82
2017-04-17T10:36:28.529Z,46.87
2017-04-17T10:37:29.794Z,48.36
2017-04-17T10:38:23.623Z,45.47
2017-04-17T10:39:17.678Z,45.38
2017-04-17T10:40:11.723Z,48.77
2017-04-17T10:40:59.770Z,47.38
2017-04-17T10:41:53.784Z,47.61
2017-04-17T10:42:53.913Z,47.45
2017-04-17T10:43:47.914Z,48.98
2017-04-17T10:44:48.979Z,49.13
2017-04-17T10:45:37.992Z,47.33
2017-04-17T10:46:27.152Z,44.52
2017-04-17T10:47:16.057Z,43.00
2017-04-17T10:48:05.324Z,44.37
2017-04-17T10:49:05.237Z,42.37
2017-04-17T10:49:54.297Z,42.98
2017-04-17T10:50:49.349Z,42.08
2017-04-17T10:51:37.384Z,42.70
2017-04-17T10:52:26.473Z,42.57
2017-04-17T10:53:26.571Z,45.08
2017-04-17T10:54:15.562Z,45.13
2017-04-17T10:55:09.587Z,44.03
2017-04-17T10:56:04.655Z,43.05
2017-04-17T10:56:53.732Z,44.65
2017-04-17T10:57:47.796Z,43.55
2017-04-17T10:58:35.885Z,44.74
2017-04-17T10:59:30.917Z,44.96
2017-04-17T11:00:31.247Z,44.21
2017-04-17T11:01:24.976Z,44.77
2017-04-17T11:02:20.054Z,45.89
2017-04-17T11:03:15.125Z,45.70
2017-04-17T11:04:04.475Z,46.76
2017-04-17T11:04:58.224Z,44.75
2017-04-17T11:05:53.292Z,45.89
2017-04-17T11:06:41.338Z,47.18
2017-04-17T11:07:35.360Z,44.32
2017-04-17T11:08:30.404Z,43.83
2017-04-17T11:09:20.028Z,45.21
2017-04-17T11:10:13.563Z,43.85
2017-04-17T11:11:01.592Z,46.93
2017-04-17T11:11:55.671Z,44.98
2017-04-17T11:12:49.707Z,47.04
2017-04-17T11:13:38.773Z,48.93
2017-04-17T11:14:33.120Z,48.21
2017-04-17T11:15:27.866Z,44.95
2017-04-17T11:16:22.003Z,44.47
2017-04-17T11:17:22.137Z,44.25
2017-04-17T11:18:17.087Z,42.67
2017-04-17T11:19:11.118Z,44.40
2017-04-17T11:20:00.448Z,41.40
2017-04-17T11:20:54.198Z,44.78
2017-04-17T11:21:48.256Z,44.50
2017-04-17T11:22:36.365Z,46.55
2017-04-17T11:23:25.361Z,41.07
2017-04-17T11:24:14.413Z,42.31
2017-04-17T11:25:09.976Z,43.00
2017-04-17T11:25:57.564Z,43.03
2017-04-17T11:26:57.597Z,40.68
2017-04-17T11:27:46.036Z,40.98
2017-04-17T11:28:33.762Z,41.19
2017-04-17T11:29:27.808Z,45.11
2017-04-17T11:30:17.175Z,45.64
2017-04-17T11:31:04.909Z,47.49
2017-04-17T11:31:59.993Z,47.84
2017-04-17T11:32:53.997Z,48.11
2017-04-17T11:33:43.095Z,48.73
2017-04-17T11:34:37.142Z,48.64
2017-04-17T11:35:25.483Z,47.19
2017-04-17T11:36:13.274Z,45.28
2017-04-17T11:37:02.319Z,43.52
2017-04-17T11:37:56.572Z,42.02
2017-04-17T11:38:50.398Z,42.52
2017-04-17T11:39:50.489Z,41.72
2017-04-17T11:40:39.581Z,42.98
2017-04-17T11:41:33.585Z,43.03